createdAt,value
2023-05-05T00:00:45.742Z,0.00
2023-05-05T00:01:45.724Z,0.00
2023-05-05T00:02:45.842Z,0.00
2023-05-05T00:03:45.788Z,0.00
2023-05-05T00:04:45.656Z,0.00
2023-05-05T00:05:45.642Z,0.00
2023-05-05T00:06:45.628Z,0.00
2023-05-05T00:07:45.614Z,0.00
2023-05-05T00:08:45.622Z,0.00
2023-05-05T00:09:45.589Z,0.00
2023-05-05T00:10:45.574Z,0.00
2023-05-05T00:11:45.586Z,0.00
2023-05-05T00:12:45.626Z,0.00
2023-05-05T00:13:45.533Z,0.00
2023-05-05T00:14:45.534Z,0.00
2023-05-05T00:15:45.504Z,0.00
2023-05-05T00:16:45.582Z,0.00
2023-05-05T00:17:45.486Z,0.00
2023-05-05T00:18:45.465Z,0.00
2023-05-05T00:19:45.448Z,0.00
2023-05-05T00:20:45.433Z,0.00
2023-05-05T00:21:45.414Z,0.00
2023-05-05T00:22:45.416Z,0.00
2023-05-05T00:23:45.386Z,0.00
2023-05-05T00:24:45.373Z,0.00
2023-05-05T00:25:45.362Z,0.00
2023-05-05T00:26:45.350Z,0.00
2023-05-05T00:27:45.343Z,0.00
2023-05-05T00:28:45.319Z,0.00
2023-05-05T00:29:45.305Z,0.00
2023-05-05T00:30:45.297Z,0.00
2023-05-05T00:31:45.278Z,0.00
2023-05-05T00:32:45.346Z,0.00
2023-05-05T00:33:45.253Z,0.00
2023-05-05T00:34:45.244Z,0.00
2023-05-05T00:35:45.222Z,0.00
2023-05-05T00:36:45.216Z,0.00
2023-05-05T00:37:45.207Z,0.00
2023-05-05T00:38:45.190Z,0.00
2023-05-05T00:39:45.185Z,0.00
2023-05-05T00:40:45.163Z,0.00
2023-05-05T00:41:45.152Z,0.00
2023-05-05T00:42:45.139Z,0.00
2023-05-05T00:43:45.119Z,0.00
2023-05-05T00:44:45.113Z,0.00
2023-05-05T00:45:45.101Z,0.00
2023-05-05T00:46:45.127Z,0.00
2023-05-05T00:47:45.116Z,0.00
2023-05-05T00:48:45.079Z,0.00
2023-05-05T00:49:45.034Z,0.00
2023-05-05T00:50:45.035Z,0.00
2023-05-05T00:51:45.013Z,0.00
2023-05-05T00:52:44.997Z,0.00
2023-05-05T00:53:44.981Z,0.00
2023-05-05T00:54:44.968Z,0.00
2023-05-05T00:55:44.953Z,0.00
2023-05-05T00:56:44.940Z,0.00
2023-05-05T00:57:45.141Z,0.00
2023-05-05T00:58:44.929Z,0.00
2023-05-05T00:59:44.911Z,0.00
2023-05-05T01:00:44.891Z,0.00
2023-05-05T01:01:44.919Z,0.00
2023-05-05T01:02:44.971Z,0.00
2023-05-05T01:03:44.981Z,0.00
2023-05-05T01:04:44.857Z,0.00
2023-05-05T01:05:44.841Z,0.00
2023-05-05T01:06:44.810Z,0.00
2023-05-05T01:07:44.795Z,0.00
2023-05-05T01:08:44.777Z,0.00
2023-05-05T01:09:44.762Z,0.00
2023-05-05T01:10:44.752Z,0.00
2023-05-05T01:11:44.746Z,0.00
2023-05-05T01:12:44.769Z,0.00
2023-05-05T01:13:44.711Z,0.00
2023-05-05T01:14:44.699Z,0.00
2023-05-05T01:15:44.687Z,0.00
2023-05-05T01:16:44.700Z,0.00
2023-05-05T01:17:44.665Z,0.00
2023-05-05T01:18:44.643Z,0.00
2023-05-05T01:19:44.640Z,0.00
2023-05-05T01:20:44.641Z,0.00
2023-05-05T01:21:44.604Z,0.00
2023-05-05T01:22:44.585Z,0.00
2023-05-05T01:23:44.579Z,0.00
2023-05-05T01:24:44.568Z,0.00
2023-05-05T01:25:44.552Z,0.00
2023-05-05T01:26:44.539Z,0.00
2023-05-05T01:27:44.525Z,0.00
2023-05-05T01:28:44.514Z,0.00
2023-05-05T01:29:44.498Z,0.00
2023-05-05T01:30:44.492Z,0.00
2023-05-05T01:31:44.505Z,0.00
2023-05-05T01:32:44.498Z,0.00
2023-05-05T01:33:44.448Z,0.00
2023-05-05T01:34:44.437Z,0.00
2023-05-05T01:35:44.621Z,0.00
2023-05-05T01:36:44.457Z,0.00
2023-05-05T01:37:44.385Z,0.00
2023-05-05T01:38:44.372Z,0.00
2023-05-05T01:39:44.361Z,0.00
2023-05-05T01:40:44.352Z,0.00
2023-05-05T01:41:44.343Z,0.00
2023-05-05T01:42:44.328Z,0.00
2023-05-05T01:43:44.313Z,0.00
2023-05-05T01:44:44.446Z,0.00
2023-05-05T01:45:44.363Z,0.00
2023-05-05T01:46:44.270Z,0.00
2023-05-05T01:47:44.283Z,0.00
2023-05-05T01:48:44.242Z,0.00
2023-05-05T01:49:44.236Z,0.00
2023-05-05T01:50:44.217Z,0.00
2023-05-05T01:51:44.218Z,0.00
2023-05-05T01:52:44.210Z,0.00
2023-05-05T01:53:44.183Z,0.00
2023-05-05T01:54:44.562Z,0.00
2023-05-05T01:55:44.148Z,0.00
2023-05-05T01:56:44.146Z,0.00
2023-05-05T01:57:44.122Z,0.00
2023-05-05T01:58:44.455Z,0.00
2023-05-05T01:59:44.093Z,0.00
2023-05-05T02:00:44.112Z,0.00
2023-05-05T02:01:44.105Z,0.00
2023-05-05T02:02:44.137Z,0.00
2023-05-05T02:03:44.487Z,0.00
2023-05-05T02:04:44.020Z,0.00
2023-05-05T02:05:44.009Z,0.00
2023-05-05T02:06:44.393Z,0.00
2023-05-05T02:07:43.981Z,0.00
2023-05-05T02:08:43.993Z,0.00
2023-05-05T02:09:43.971Z,0.00
2023-05-05T02:10:43.941Z,0.00
2023-05-05T02:11:43.929Z,0.00
2023-05-05T02:12:43.939Z,0.00
2023-05-05T02:13:43.974Z,0.00
2023-05-05T02:14:43.888Z,0.00
2023-05-05T02:15:43.923Z,0.00
2023-05-05T02:16:44.059Z,0.00
2023-05-05T02:17:43.892Z,0.00
2023-05-05T02:18:43.841Z,0.00
2023-05-05T02:19:43.833Z,0.00
2023-05-05T02:20:43.804Z,0.00
2023-05-05T02:21:43.789Z,0.00
2023-05-05T02:22:43.776Z,0.00
2023-05-05T02:23:43.768Z,0.00
2023-05-05T02:24:43.782Z,0.00
2023-05-05T02:25:43.755Z,0.00
2023-05-05T02:26:43.729Z,0.00
2023-05-05T02:27:43.716Z,0.00
2023-05-05T02:28:43.696Z,0.00
2023-05-05T02:29:43.682Z,0.00
2023-05-05T02:30:43.745Z,0.00
2023-05-05T02:31:43.688Z,0.00
2023-05-05T02:32:43.656Z,0.00
2023-05-05T02:33:43.636Z,0.00
2023-05-05T02:34:43.622Z,0.00
2023-05-05T02:35:43.609Z,0.00
2023-05-05T02:36:43.591Z,0.00
2023-05-05T02:37:43.577Z,0.00
2023-05-05T02:38:43.559Z,0.00
2023-05-05T02:39:43.571Z,0.00
2023-05-05T02:40:43.566Z,0.00
2023-05-05T02:41:43.526Z,0.00
2023-05-05T02:42:43.527Z,0.00
2023-05-05T02:43:43.497Z,0.00
2023-05-05T02:44:43.488Z,0.00
2023-05-05T02:45:43.475Z,0.00
2023-05-05T02:46:43.531Z,0.00
2023-05-05T02:47:43.520Z,0.00
2023-05-05T02:48:43.422Z,0.00
2023-05-05T02:49:43.516Z,0.00
2023-05-05T02:50:43.401Z,0.00
2023-05-05T02:51:43.451Z,0.00
2023-05-05T02:52:43.384Z,0.00
2023-05-05T02:53:43.460Z,0.00
2023-05-05T02:54:43.351Z,0.00
2023-05-05T02:55:43.384Z,0.00
2023-05-05T02:56:43.352Z,0.00
2023-05-05T02:57:43.300Z,0.00
2023-05-05T02:58:43.283Z,0.00
2023-05-05T02:59:43.276Z,0.00
2023-05-05T03:00:43.274Z,0.00
2023-05-05T03:01:43.397Z,0.00
2023-05-05T03:02:43.688Z,0.00
2023-05-05T03:03:43.263Z,0.00
2023-05-05T03:04:43.556Z,0.00
2023-05-05T03:05:43.202Z,0.00
2023-05-05T03:06:43.180Z,0.00
2023-05-05T03:07:43.171Z,0.00
2023-05-05T03:08:43.154Z,0.00
2023-05-05T03:09:43.148Z,0.00
2023-05-05T03:10:43.133Z,0.00
2023-05-05T03:11:43.114Z,0.00
2023-05-05T03:12:43.174Z,0.00
2023-05-05T03:13:43.086Z,0.00
2023-05-05T03:14:43.076Z,0.00
2023-05-05T03:15:43.071Z,0.00
2023-05-05T03:16:43.053Z,0.00
2023-05-05T03:17:43.127Z,0.00
2023-05-05T03:18:43.013Z,0.00
2023-05-05T03:19:43.004Z,0.00
2023-05-05T03:20:42.989Z,0.00
2023-05-05T03:21:42.987Z,0.00
2023-05-05T03:22:42.965Z,0.00
2023-05-05T03:23:42.955Z,0.00
2023-05-05T03:24:42.936Z,0.00
2023-05-05T03:25:42.921Z,0.00
2023-05-05T03:26:42.921Z,0.00
2023-05-05T03:27:42.893Z,0.00
2023-05-05T03:28:42.900Z,0.00
2023-05-05T03:29:42.863Z,0.00
2023-05-05T03:30:42.853Z,0.00
2023-05-05T03:31:42.864Z,0.00
2023-05-05T03:32:42.886Z,4.00
2023-05-05T03:33:42.811Z,4.00
2023-05-05T03:34:42.807Z,4.00
2023-05-05T03:35:42.794Z,0.00
2023-05-05T03:36:42.763Z,4.00
2023-05-05T03:37:42.754Z,4.00
2023-05-05T03:38:42.744Z,4.00
2023-05-05T03:39:42.726Z,4.00
2023-05-05T03:40:44.534Z,4.00
2023-05-05T03:41:42.704Z,4.00
2023-05-05T03:42:42.682Z,8.00
2023-05-05T03:43:42.668Z,8.00
2023-05-05T03:44:42.693Z,8.00
2023-05-05T03:45:42.661Z,8.00
2023-05-05T03:46:42.631Z,12.00
2023-05-05T03:47:42.685Z,12.00
2023-05-05T03:48:42.606Z,12.00
2023-05-05T03:49:42.594Z,12.00
2023-05-05T03:50:42.579Z,16.00
2023-05-05T03:51:42.570Z,20.00
2023-05-05T03:52:42.548Z,20.00
2023-05-05T03:53:42.547Z,24.00
2023-05-05T03:54:42.521Z,28.00
2023-05-05T03:55:42.511Z,36.00
2023-05-05T03:56:42.499Z,40.00
2023-05-05T03:57:42.487Z,44.00
2023-05-05T03:58:42.503Z,48.00
2023-05-05T03:59:42.465Z,52.00
2023-05-05T04:00:42.486Z,60.00
2023-05-05T04:01:42.430Z,72.00
2023-05-05T04:02:42.521Z,80.00
2023-05-05T04:03:42.447Z,92.00
2023-05-05T04:04:42.392Z,104.00
2023-05-05T04:05:42.380Z,116.00
2023-05-05T04:06:42.361Z,136.00
2023-05-05T04:07:42.345Z,160.00
2023-05-05T04:08:42.334Z,176.00
2023-05-05T04:09:42.323Z,200.00
2023-05-05T04:10:42.312Z,216.00
2023-05-05T04:11:42.296Z,228.00
2023-05-05T04:12:42.355Z,236.00
2023-05-05T04:13:42.274Z,244.00
2023-05-05T04:14:42.255Z,256.00
2023-05-05T04:15:42.281Z,268.00
2023-05-05T04:16:42.254Z,268.00
2023-05-05T04:17:42.259Z,276.00
2023-05-05T04:18:42.198Z,272.00
2023-05-05T04:19:42.189Z,264.00
2023-05-05T04:20:42.173Z,252.00
2023-05-05T04:21:42.160Z,252.00
2023-05-05T04:22:42.140Z,256.00
2023-05-05T04:23:42.130Z,260.00
2023-05-05T04:24:42.124Z,272.00
2023-05-05T04:25:42.106Z,292.00
2023-05-05T04:26:42.095Z,312.00
2023-05-05T04:27:42.086Z,336.00
2023-05-05T04:28:42.068Z,360.00
2023-05-05T04:29:42.053Z,368.00
2023-05-05T04:30:42.050Z,368.00
2023-05-05T04:31:42.563Z,372.00
2023-05-05T04:32:42.074Z,388.00
2023-05-05T04:33:41.991Z,388.00
2023-05-05T04:34:41.977Z,448.00
2023-05-05T04:35:41.965Z,504.00
2023-05-05T04:36:41.955Z,552.00
2023-05-05T04:37:41.947Z,592.00
2023-05-05T04:38:41.967Z,644.00
2023-05-05T04:39:41.913Z,656.00
2023-05-05T04:40:41.912Z,712.00
2023-05-05T04:41:41.882Z,760.00
2023-05-05T04:42:41.868Z,812.00
2023-05-05T04:43:41.854Z,832.00
2023-05-05T04:44:41.839Z,816.00
2023-05-05T04:45:41.827Z,788.00
2023-05-05T04:46:41.822Z,744.00
2023-05-05T04:47:41.909Z,712.00
2023-05-05T04:48:41.806Z,672.00
2023-05-05T04:49:41.788Z,628.00
2023-05-05T04:50:41.768Z,600.00
2023-05-05T04:51:41.751Z,608.00
2023-05-05T04:52:41.734Z,644.00
2023-05-05T04:53:41.720Z,688.00
2023-05-05T04:54:41.707Z,744.00
2023-05-05T04:55:41.705Z,792.00
2023-05-05T04:56:41.725Z,828.00
2023-05-05T04:57:41.666Z,884.00
2023-05-05T04:58:41.648Z,952.00
2023-05-05T04:59:41.639Z,1012.00
2023-05-05T05:00:41.626Z,1060.00
2023-05-05T05:01:41.663Z,1120.00
2023-05-05T05:02:41.698Z,1220.00
2023-05-05T05:03:41.740Z,1320.00
2023-05-05T05:04:41.659Z,1396.00
2023-05-05T05:05:41.567Z,1436.00
2023-05-05T05:06:41.547Z,1420.00
2023-05-05T05:07:41.540Z,1472.00
2023-05-05T05:08:41.511Z,1524.00
2023-05-05T05:09:41.601Z,1560.00
2023-05-05T05:10:41.497Z,1596.00
2023-05-05T05:11:41.472Z,1676.00
2023-05-05T05:12:41.651Z,1836.00
2023-05-05T05:13:41.447Z,2024.00
2023-05-05T05:14:41.436Z,2112.00
2023-05-05T05:15:41.668Z,2088.00
2023-05-05T05:16:41.456Z,2024.00
2023-05-05T05:17:41.426Z,2048.00
2023-05-05T05:18:41.524Z,2100.00
2023-05-05T05:19:41.361Z,2188.00
2023-05-05T05:20:41.406Z,2328.00
2023-05-05T05:21:41.687Z,2356.00
2023-05-05T05:22:41.332Z,2360.00
2023-05-05T05:23:41.315Z,2376.00
2023-05-05T05:24:41.296Z,2380.00
2023-05-05T05:25:41.292Z,2364.00
2023-05-05T05:26:41.274Z,2388.00
2023-05-05T05:27:41.254Z,2484.00
2023-05-05T05:28:41.248Z,2620.00
2023-05-05T05:29:41.232Z,2720.00
2023-05-05T05:30:41.219Z,2856.00
2023-05-05T05:31:41.244Z,3012.00
2023-05-05T05:32:41.213Z,3168.00
2023-05-05T05:33:41.168Z,3324.00
2023-05-05T05:34:41.157Z,3460.00
2023-05-05T05:35:41.175Z,3580.00
2023-05-05T05:36:41.166Z,3708.00
2023-05-05T05:37:41.131Z,3668.00
2023-05-05T05:38:41.113Z,3508.00
2023-05-05T05:39:43.186Z,3860.00
2023-05-05T05:40:41.099Z,3804.00
2023-05-05T05:41:41.064Z,3588.00
2023-05-05T05:42:41.050Z,3336.00
2023-05-05T05:43:41.040Z,3440.00
2023-05-05T05:44:41.028Z,3484.00
2023-05-05T05:45:41.052Z,3612.00
2023-05-05T05:46:41.063Z,4068.00
2023-05-05T05:47:41.022Z,4168.00
2023-05-05T05:48:40.973Z,3760.00
2023-05-05T05:49:40.953Z,3920.00
2023-05-05T05:50:40.937Z,4132.00
2023-05-05T05:51:40.924Z,4432.00
2023-05-05T05:52:40.937Z,5724.00
2023-05-05T05:53:40.912Z,4968.00
2023-05-05T05:54:40.892Z,5212.00
2023-05-05T05:55:40.875Z,8696.00
2023-05-05T05:56:40.862Z,10100.00
2023-05-05T05:57:40.854Z,9596.00
2023-05-05T05:58:40.837Z,9972.00
2023-05-05T05:59:40.828Z,11160.00
2023-05-05T06:00:40.814Z,9712.00
2023-05-05T06:01:40.788Z,13408.00
2023-05-05T06:02:40.848Z,13920.00
2023-05-05T06:03:40.908Z,8028.00
2023-05-05T06:04:40.930Z,14400.00
2023-05-05T06:05:40.734Z,13280.00
2023-05-05T06:06:40.725Z,14240.00
2023-05-05T06:07:40.725Z,16864.00
2023-05-05T06:08:40.724Z,16960.00
2023-05-05T06:09:40.877Z,16768.00
2023-05-05T06:10:40.664Z,16640.00
2023-05-05T06:11:40.649Z,17888.00
2023-05-05T06:12:40.667Z,18336.00
2023-05-05T06:13:40.625Z,16576.00
2023-05-05T06:14:40.620Z,13536.00
2023-05-05T06:15:40.622Z,11292.00
2023-05-05T06:16:40.583Z,10660.00
2023-05-05T06:17:40.586Z,10532.00
2023-05-05T06:18:40.556Z,11016.00
2023-05-05T06:19:40.544Z,11420.00
2023-05-05T06:20:40.534Z,11140.00
2023-05-05T06:21:40.518Z,11056.00
2023-05-05T06:22:40.528Z,10880.00
2023-05-05T06:23:40.502Z,9448.00
2023-05-05T06:24:40.495Z,9244.00
2023-05-05T06:25:40.457Z,9272.00
2023-05-05T06:26:40.444Z,9700.00
2023-05-05T06:27:40.434Z,8140.00
2023-05-05T06:28:40.424Z,7704.00
2023-05-05T06:29:40.416Z,7604.00
2023-05-05T06:30:40.401Z,7560.00
2023-05-05T06:31:40.452Z,7640.00
2023-05-05T06:32:40.438Z,7708.00
2023-05-05T06:33:40.358Z,7720.00
2023-05-05T06:34:40.350Z,7864.00
2023-05-05T06:35:40.343Z,8164.00
2023-05-05T06:36:40.423Z,8416.00
2023-05-05T06:37:40.309Z,8504.00
2023-05-05T06:38:40.293Z,8560.00
2023-05-05T06:39:40.275Z,9068.00
2023-05-05T06:40:40.288Z,8240.00
2023-05-05T06:41:40.251Z,7660.00
2023-05-05T06:42:40.245Z,7288.00
2023-05-05T06:43:40.229Z,7068.00
2023-05-05T06:44:40.223Z,7148.00
2023-05-05T06:45:40.778Z,7420.00
2023-05-05T06:46:40.211Z,7724.00
2023-05-05T06:47:40.246Z,8064.00
2023-05-05T06:48:40.157Z,8516.00
2023-05-05T06:49:40.137Z,9112.00
2023-05-05T06:50:40.128Z,9900.00
2023-05-05T06:51:42.204Z,9816.00
2023-05-05T06:52:40.103Z,10272.00
2023-05-05T06:53:40.088Z,10320.00
2023-05-05T06:54:40.094Z,10320.00
2023-05-05T06:55:40.064Z,10736.00
2023-05-05T06:56:40.144Z,13036.00
2023-05-05T06:57:40.033Z,25728.00
2023-05-05T06:58:40.028Z,20960.00
2023-05-05T06:59:40.011Z,18240.00
2023-05-05T07:00:40.013Z,13720.00
2023-05-05T07:01:39.988Z,21568.00
2023-05-05T07:02:40.151Z,22848.00
2023-05-05T07:03:39.970Z,14048.00
2023-05-05T07:04:39.952Z,16288.00
2023-05-05T07:05:39.935Z,8764.00
2023-05-05T07:06:39.926Z,6344.00
2023-05-05T07:07:39.906Z,5508.00
2023-05-05T07:08:39.894Z,4972.00
2023-05-05T07:09:39.876Z,4624.00
2023-05-05T07:10:39.873Z,4252.00
2023-05-05T07:11:39.850Z,3892.00
2023-05-05T07:12:39.948Z,3724.00
2023-05-05T07:13:40.035Z,3692.00
2023-05-05T07:14:39.808Z,3692.00
2023-05-05T07:15:39.844Z,3628.00
2023-05-05T07:16:39.842Z,3532.00
2023-05-05T07:17:39.799Z,3452.00
2023-05-05T07:18:39.769Z,3532.00
2023-05-05T07:19:39.748Z,3556.00
2023-05-05T07:20:39.726Z,3472.00
2023-05-05T07:21:39.725Z,3444.00
2023-05-05T07:22:39.733Z,3368.00
2023-05-05T07:23:39.690Z,3308.00
2023-05-05T07:24:39.679Z,3176.00
2023-05-05T07:25:39.665Z,3116.00
2023-05-05T07:26:39.647Z,3016.00
2023-05-05T07:27:39.632Z,2792.00
2023-05-05T07:28:39.810Z,2544.00
2023-05-05T07:29:39.615Z,2340.00
2023-05-05T07:30:39.609Z,2164.00
2023-05-05T07:31:39.671Z,2064.00
2023-05-05T07:32:39.619Z,1992.00
2023-05-05T07:33:39.562Z,1880.00
2023-05-05T07:34:39.549Z,1788.00
2023-05-05T07:35:39.535Z,1740.00
2023-05-05T07:36:39.520Z,1740.00
2023-05-05T07:37:39.501Z,1800.00
2023-05-05T07:38:39.493Z,1912.00
2023-05-05T07:39:39.477Z,2044.00
2023-05-05T07:40:39.457Z,2168.00
2023-05-05T07:41:39.445Z,2272.00
2023-05-05T07:42:39.435Z,2348.00
2023-05-05T07:43:39.705Z,2400.00
2023-05-05T07:44:39.520Z,2424.00
2023-05-05T07:45:39.440Z,2380.00
2023-05-05T07:46:39.380Z,2304.00
2023-05-05T07:47:39.461Z,2272.00
2023-05-05T07:48:39.500Z,2220.00
2023-05-05T07:49:39.333Z,2208.00
2023-05-05T07:50:39.335Z,2280.00
2023-05-05T07:51:39.317Z,2432.00
2023-05-05T07:53:39.282Z,2768.00
2023-05-05T07:54:39.287Z,2864.00
2023-05-05T07:55:39.260Z,2996.00
2023-05-05T07:56:39.250Z,3192.00
2023-05-05T07:57:39.228Z,3448.00
2023-05-05T07:58:39.216Z,3692.00
2023-05-05T07:59:39.199Z,3872.00
2023-05-05T08:00:39.313Z,3960.00
2023-05-05T08:01:39.189Z,3980.00
2023-05-05T08:02:39.300Z,3980.00
2023-05-05T08:03:39.310Z,3972.00
2023-05-05T08:04:39.160Z,4008.00
2023-05-05T08:05:39.119Z,4060.00
2023-05-05T08:06:39.101Z,4068.00
2023-05-05T08:07:39.092Z,4112.00
2023-05-05T08:08:39.082Z,4068.00
2023-05-05T08:09:39.068Z,3956.00
2023-05-05T08:10:39.054Z,3844.00
2023-05-05T08:11:39.045Z,3796.00
2023-05-05T08:12:39.120Z,3928.00
2023-05-05T08:13:39.015Z,4100.00
2023-05-05T08:14:39.024Z,4160.00
2023-05-05T08:15:39.049Z,4128.00
2023-05-05T08:16:39.070Z,4012.00
2023-05-05T08:17:38.984Z,3924.00
2023-05-05T08:18:38.944Z,3892.00
2023-05-05T08:19:38.929Z,3840.00
2023-05-05T08:20:38.925Z,3864.00
2023-05-05T08:21:38.910Z,3940.00
2023-05-05T08:22:38.899Z,4012.00
2023-05-05T08:23:38.891Z,4024.00
2023-05-05T08:24:38.869Z,3988.00
2023-05-05T08:25:38.852Z,3908.00
2023-05-05T08:26:38.841Z,3868.00
2023-05-05T08:27:38.822Z,3892.00
2023-05-05T08:28:38.826Z,3916.00
2023-05-05T08:29:38.793Z,3940.00
2023-05-05T08:30:38.802Z,3948.00
2023-05-05T08:31:38.940Z,3900.00
2023-05-05T08:32:38.976Z,3844.00
2023-05-05T08:33:38.748Z,3804.00
2023-05-05T08:34:38.834Z,3796.00
2023-05-05T08:35:38.725Z,3836.00
2023-05-05T08:36:38.857Z,3884.00
2023-05-05T08:37:38.692Z,3940.00
2023-05-05T08:38:38.681Z,4000.00
2023-05-05T08:39:38.670Z,4060.00
2023-05-05T08:40:38.658Z,4132.00
2023-05-05T08:41:38.636Z,4256.00
2023-05-05T08:42:39.583Z,4436.00
2023-05-05T08:43:38.610Z,4696.00
2023-05-05T08:44:38.605Z,5084.00
2023-05-05T08:45:38.591Z,5548.00
2023-05-05T08:46:38.884Z,6104.00
2023-05-05T08:48:38.654Z,7064.00
2023-05-05T08:49:38.569Z,7720.00
2023-05-05T08:50:38.520Z,8180.00
2023-05-05T08:51:38.503Z,8712.00
2023-05-05T08:52:38.528Z,9008.00
2023-05-05T08:53:38.477Z,8924.00
2023-05-05T08:54:38.463Z,8284.00
2023-05-05T08:55:38.442Z,7736.00
2023-05-05T08:56:38.436Z,7364.00
2023-05-05T08:57:38.429Z,7200.00
2023-05-05T08:58:38.415Z,7292.00
2023-05-05T08:59:38.404Z,7512.00
2023-05-05T09:00:38.445Z,7812.00
2023-05-05T09:01:38.441Z,8264.00
2023-05-05T09:02:38.464Z,8776.00
2023-05-05T09:03:38.409Z,9292.00
2023-05-05T09:04:38.418Z,9740.00
2023-05-05T09:05:38.311Z,9800.00
2023-05-05T09:06:38.306Z,9732.00
2023-05-05T09:07:38.280Z,9628.00
2023-05-05T09:08:38.270Z,9788.00
2023-05-05T09:09:38.253Z,10008.00
2023-05-05T09:10:38.241Z,10220.00
2023-05-05T09:11:38.226Z,10272.00
2023-05-05T09:12:38.226Z,10232.00
2023-05-05T09:13:38.201Z,10452.00
2023-05-05T09:14:38.199Z,10704.00
2023-05-05T09:15:38.177Z,10960.00
2023-05-05T09:16:38.258Z,11332.00
2023-05-05T09:17:38.220Z,11864.00
2023-05-05T09:18:38.140Z,12448.00
2023-05-05T09:19:38.121Z,14160.00
2023-05-05T09:20:38.553Z,15424.00
2023-05-05T09:21:38.113Z,19424.00
2023-05-05T09:22:38.083Z,24832.00
2023-05-05T09:23:38.065Z,41568.00
2023-05-05T09:24:38.053Z,61760.00
2023-05-05T09:25:38.041Z,39296.00
2023-05-05T09:26:38.025Z,59328.00
2023-05-05T09:27:38.016Z,52000.00
2023-05-05T09:28:38.020Z,38848.00
2023-05-05T09:29:38.016Z,41952.00
2023-05-05T09:30:38.015Z,35296.00
2023-05-05T09:31:38.016Z,45888.00
2023-05-05T09:32:37.989Z,67680.00
2023-05-05T09:33:37.946Z,42016.00
2023-05-05T09:34:37.930Z,62336.00
2023-05-05T09:35:37.919Z,48960.00
2023-05-05T09:36:38.117Z,59840.00
2023-05-05T09:37:37.888Z,61824.00
2023-05-05T09:38:37.873Z,60000.00
2023-05-05T09:39:37.859Z,58400.00
2023-05-05T09:40:37.842Z,60128.00
2023-05-05T09:41:37.837Z,54816.00
2023-05-05T09:42:37.837Z,52800.00
2023-05-05T09:43:37.808Z,47360.00
2023-05-05T09:44:37.794Z,54752.00
2023-05-05T09:45:37.783Z,53568.00
2023-05-05T09:46:37.790Z,51680.00
2023-05-05T09:47:37.891Z,49024.00
2023-05-05T09:48:37.745Z,52448.00
2023-05-05T09:49:37.734Z,48640.00
2023-05-05T09:50:37.723Z,45696.00
2023-05-05T09:51:37.714Z,57440.00
2023-05-05T09:52:37.762Z,56064.00
2023-05-05T09:53:37.678Z,30176.00
2023-05-05T09:54:37.675Z,27392.00
2023-05-05T09:55:37.673Z,47840.00
2023-05-05T09:56:37.640Z,30464.00
2023-05-05T09:57:37.628Z,32928.00
2023-05-05T09:58:37.766Z,17984.00
2023-05-05T09:59:37.609Z,16032.00
2023-05-05T10:00:37.587Z,24800.00
2023-05-05T10:01:37.691Z,12640.00
2023-05-05T10:02:37.568Z,10956.00
2023-05-05T10:03:37.549Z,10368.00
2023-05-05T10:04:37.570Z,10280.00
2023-05-05T10:05:37.520Z,10920.00
2023-05-05T10:06:37.509Z,12472.00
2023-05-05T10:07:37.496Z,13308.00
2023-05-05T10:08:37.576Z,16160.00
2023-05-05T10:09:37.490Z,19872.00
2023-05-05T10:10:37.468Z,14888.00
2023-05-05T10:11:37.455Z,14312.00
2023-05-05T10:12:37.829Z,13628.00
2023-05-05T10:13:37.419Z,13852.00
2023-05-05T10:14:37.409Z,13556.00
2023-05-05T10:15:37.398Z,13352.00
2023-05-05T10:16:37.428Z,13012.00
2023-05-05T10:17:37.411Z,12600.00
2023-05-05T10:18:37.380Z,13144.00
2023-05-05T10:19:37.343Z,11992.00
2023-05-05T10:20:37.343Z,12476.00
2023-05-05T10:21:37.315Z,10992.00
2023-05-05T10:22:37.298Z,10756.00
2023-05-05T10:23:37.284Z,10968.00
2023-05-05T10:24:37.318Z,15424.00
2023-05-05T10:25:37.265Z,13272.00
2023-05-05T10:26:37.249Z,11492.00
2023-05-05T10:27:37.238Z,10936.00
2023-05-05T10:28:37.233Z,10452.00
2023-05-05T10:29:37.216Z,10144.00
2023-05-05T10:30:37.204Z,9928.00
2023-05-05T10:31:37.231Z,9704.00
2023-05-05T10:32:56.403Z,9812.00
2023-05-05T10:33:38.317Z,10560.00
2023-05-05T10:34:37.177Z,11464.00
2023-05-05T10:35:37.141Z,12128.00
2023-05-05T10:36:37.122Z,11616.00
2023-05-05T10:37:37.130Z,11208.00
2023-05-05T10:38:37.099Z,10404.00
2023-05-05T10:39:37.091Z,9148.00
2023-05-05T10:40:37.168Z,9084.00
2023-05-05T10:41:37.055Z,8324.00
2023-05-05T10:42:37.053Z,7628.00
2023-05-05T10:43:37.039Z,7388.00
2023-05-05T10:44:37.025Z,7436.00
2023-05-05T10:45:37.049Z,7904.00
2023-05-05T10:46:37.191Z,8876.00
2023-05-05T10:47:37.025Z,9988.00
2023-05-05T10:48:36.976Z,11084.00
2023-05-05T10:49:36.961Z,12032.00
2023-05-05T10:50:36.961Z,11764.00
2023-05-05T10:51:40.424Z,11376.00
2023-05-05T10:52:36.910Z,10632.00
2023-05-05T10:53:36.900Z,10360.00
2023-05-05T10:54:38.321Z,10312.00
2023-05-05T10:55:36.881Z,10356.00
2023-05-05T10:56:37.154Z,11092.00
2023-05-05T10:57:36.845Z,14960.00
2023-05-05T10:58:44.116Z,16032.00
2023-05-05T10:59:38.193Z,17824.00
2023-05-05T11:00:36.808Z,21376.00
2023-05-05T11:01:36.877Z,24704.00
2023-05-05T11:02:37.099Z,25152.00
2023-05-05T11:03:36.791Z,23136.00
2023-05-05T11:04:36.746Z,24448.00
2023-05-05T11:05:36.745Z,22112.00
2023-05-05T11:06:36.743Z,27936.00
2023-05-05T11:07:36.812Z,24160.00
2023-05-05T11:08:36.695Z,17536.00
2023-05-05T11:09:36.682Z,19008.00
2023-05-05T11:10:36.667Z,13600.00
2023-05-05T11:11:36.654Z,12444.00
2023-05-05T11:12:38.847Z,12164.00
2023-05-05T11:13:36.634Z,15520.00
2023-05-05T11:14:36.621Z,19584.00
2023-05-05T11:15:36.610Z,20224.00
2023-05-05T11:16:36.628Z,22464.00
2023-05-05T11:17:36.596Z,20864.00
2023-05-05T11:18:36.605Z,21408.00
2023-05-05T11:19:36.558Z,21728.00
2023-05-05T11:20:36.532Z,23392.00
2023-05-05T11:21:36.526Z,17216.00
2023-05-05T11:22:36.509Z,19840.00
2023-05-05T11:23:36.498Z,20416.00
2023-05-05T11:24:36.487Z,15552.00
2023-05-05T11:25:36.919Z,28096.00
2023-05-05T11:26:36.473Z,30656.00
2023-05-05T11:27:36.459Z,35040.00
2023-05-05T11:28:36.582Z,37312.00
2023-05-05T11:29:36.428Z,35552.00
2023-05-05T11:30:36.415Z,38592.00
2023-05-05T11:31:36.449Z,35744.00
2023-05-05T11:32:36.432Z,35808.00
2023-05-05T11:33:36.373Z,32416.00
2023-05-05T11:34:36.363Z,32992.00
2023-05-05T11:35:36.351Z,34720.00
2023-05-05T11:36:36.332Z,35872.00
2023-05-05T11:37:36.314Z,33888.00
2023-05-05T11:38:36.320Z,17792.00
2023-05-05T11:39:36.296Z,17664.00
2023-05-05T11:40:36.280Z,37088.00
2023-05-05T11:41:36.263Z,29440.00
2023-05-05T11:42:36.252Z,29920.00
2023-05-05T11:43:36.241Z,19488.00
2023-05-05T11:44:36.253Z,19104.00
2023-05-05T11:45:36.213Z,18304.00
2023-05-05T11:46:36.353Z,17920.00
2023-05-05T11:47:36.200Z,16512.00
2023-05-05T11:48:36.204Z,16544.00
2023-05-05T11:49:36.170Z,16384.00
2023-05-05T11:50:36.150Z,16928.00
2023-05-05T11:51:36.140Z,16832.00
2023-05-05T11:52:36.122Z,16512.00
2023-05-05T11:53:36.113Z,16320.00
2023-05-05T11:54:36.099Z,16064.00
2023-05-05T11:55:36.092Z,16192.00
2023-05-05T11:56:36.077Z,16224.00
2023-05-05T11:57:36.066Z,16736.00
2023-05-05T11:58:36.052Z,13784.00
2023-05-05T11:59:36.040Z,15648.00
2023-05-05T12:00:36.123Z,14604.00
2023-05-05T12:01:36.020Z,15136.00
2023-05-05T12:02:36.124Z,13000.00
2023-05-05T12:03:36.360Z,12384.00
2023-05-05T12:04:36.015Z,12900.00
2023-05-05T12:05:36.959Z,11768.00
2023-05-05T12:06:35.966Z,19552.00
2023-05-05T12:07:35.984Z,18144.00
2023-05-05T12:08:36.000Z,18080.00
2023-05-05T12:09:35.948Z,13944.00
2023-05-05T12:10:35.962Z,11864.00
2023-05-05T12:11:35.896Z,11764.00
2023-05-05T12:12:35.927Z,11296.00
2023-05-05T12:13:35.866Z,11032.00
2023-05-05T12:14:35.844Z,10844.00
2023-05-05T12:15:35.838Z,10844.00
2023-05-05T12:16:35.926Z,10852.00
2023-05-05T12:17:35.849Z,11200.00
2023-05-05T12:18:35.808Z,12092.00
2023-05-05T12:19:35.785Z,17056.00
2023-05-05T12:20:35.778Z,25632.00
2023-05-05T12:21:35.757Z,15232.00
2023-05-05T12:22:35.751Z,15936.00
2023-05-05T12:23:35.725Z,12928.00
2023-05-05T12:24:35.714Z,13496.00